sensor_id;sensor_type;location;lat;lon;timestamp;P1;durP1;ratioP1;P2;durP2;ratioP2
18013;SDS011;9132;47.946;10.394;2022-10-16T00:01:35;2.47;;;1.50;;
18013;SDS011;9132;47.946;10.394;2022-10-16T00:04:03;2.00;;;1.47;;
18013;SDS011;9132;47.946;10.394;2022-10-16T00:06:29;1.70;;;1.50;;
18013;SDS011;9132;47.946;10.394;2022-10-16T00:08:56;4.53;;;1.83;;
18013;SDS011;9132;47.946;10.394;2022-10-16T00:11:23;4.53;;;1.50;;
18013;SDS011;9132;47.946;10.394;2022-10-16T00:13:51;7.07;;;1.73;;
18013;SDS011;9132;47.946;10.394;2022-10-16T00:16:17;3.10;;;1.50;;
18013;SDS011;9132;47.946;10.394;2022-10-16T00:18:44;3.90;;;1.30;;
18013;SDS011;9132;47.946;10.394;2022-10-16T00:21:13;3.23;;;1.27;;
18013;SDS011;9132;47.946;10.394;2022-10-16T00:23:40;1.93;;;1.33;;
18013;SDS011;9132;47.946;10.394;2022-10-16T00:26:07;3.70;;;1.60;;
18013;SDS011;9132;47.946;10.394;2022-10-16T00:28:34;4.00;;;1.60;;
18013;SDS011;9132;47.946;10.394;2022-10-16T00:31:02;4.37;;;1.87;;
18013;SDS011;9132;47.946;10.394;2022-10-16T00:33:29;5.67;;;1.70;;
18013;SDS011;9132;47.946;10.394;2022-10-16T00:35:57;3.80;;;1.40;;
18013;SDS011;9132;47.946;10.394;2022-10-16T00:38:25;2.93;;;1.50;;
18013;SDS011;9132;47.946;10.394;2022-10-16T00:40:51;7.10;;;1.60;;
18013;SDS011;9132;47.946;10.394;2022-10-16T00:43:32;2.87;;;1.77;;
18013;SDS011;9132;47.946;10.394;2022-10-16T00:45:59;4.40;;;1.90;;
18013;SDS011;9132;47.946;10.394;2022-10-16T00:48:26;8.37;;;1.90;;
18013;SDS011;9132;47.946;10.394;2022-10-16T00:50:52;3.03;;;1.50;;
18013;SDS011;9132;47.946;10.394;2022-10-16T00:53:18;3.10;;;1.23;;
18013;SDS011;9132;47.946;10.394;2022-10-16T00:55:46;2.23;;;1.47;;
18013;SDS011;9132;47.946;10.394;2022-10-16T00:58:13;2.70;;;1.53;;
18013;SDS011;9132;47.946;10.394;2022-10-16T01:00:39;3.80;;;1.40;;
18013;SDS011;9132;47.946;10.394;2022-10-16T01:05:49;4.57;;;1.70;;
18013;SDS011;9132;47.946;10.394;2022-10-16T01:08:19;2.70;;;1.60;;
18013;SDS011;9132;47.946;10.394;2022-10-16T01:10:51;3.60;;;1.77;;
18013;SDS011;9132;47.946;10.394;2022-10-16T01:13:21;5.03;;;1.63;;
18013;SDS011;9132;47.946;10.394;2022-10-16T01:15:48;4.37;;;1.83;;
18013;SDS011;9132;47.946;10.394;2022-10-16T01:18:20;3.10;;;1.50;;
18013;SDS011;9132;47.946;10.394;2022-10-16T01:20:50;3.90;;;1.50;;
18013;SDS011;9132;47.946;10.394;2022-10-16T01:23:27;2.70;;;1.30;;
18013;SDS011;9132;47.946;10.394;2022-10-16T01:26:08;3.20;;;1.70;;
18013;SDS011;9132;47.946;10.394;2022-10-16T01:28:38;4.17;;;1.30;;
18013;SDS011;9132;47.946;10.394;2022-10-16T01:31:05;3.10;;;1.90;;
18013;SDS011;9132;47.946;10.394;2022-10-16T01:33:33;1.50;;;1.30;;
18013;SDS011;9132;47.946;10.394;2022-10-16T01:36:02;1.77;;;1.40;;
18013;SDS011;9132;47.946;10.394;2022-10-16T01:38:30;3.70;;;1.27;;
18013;SDS011;9132;47.946;10.394;2022-10-16T01:40:58;2.27;;;1.43;;
18013;SDS011;9132;47.946;10.394;2022-10-16T01:43:26;3.17;;;1.30;;
18013;SDS011;9132;47.946;10.394;2022-10-16T01:45:56;3.00;;;1.20;;
18013;SDS011;9132;47.946;10.394;2022-10-16T01:48:22;6.10;;;1.63;;
18013;SDS011;9132;47.946;10.394;2022-10-16T01:50:50;6.80;;;1.40;;
18013;SDS011;9132;47.946;10.394;2022-10-16T01:53:18;5.80;;;1.67;;
18013;SDS011;9132;47.946;10.394;2022-10-16T01:55:46;2.73;;;1.30;;
18013;SDS011;9132;47.946;10.394;2022-10-16T01:58:14;1.73;;;1.13;;
18013;SDS011;9132;47.946;10.394;2022-10-16T02:00:41;4.70;;;1.17;;
18013;SDS011;9132;47.946;10.394;2022-10-16T02:03:10;1.60;;;1.30;;
18013;SDS011;9132;47.946;10.394;2022-10-16T02:05:37;1.47;;;1.20;;
18013;SDS011;9132;47.946;10.394;2022-10-16T02:08:05;1.67;;;1.17;;
18013;SDS011;9132;47.946;10.394;2022-10-16T02:10:31;2.77;;;1.20;;
18013;SDS011;9132;47.946;10.394;2022-10-16T02:12:59;3.90;;;1.20;;
18013;SDS011;9132;47.946;10.394;2022-10-16T02:15:26;1.20;;;0.97;;
18013;SDS011;9132;47.946;10.394;2022-10-16T02:17:53;1.73;;;1.30;;
18013;SDS011;9132;47.946;10.394;2022-10-16T02:20:22;2.17;;;0.80;;
18013;SDS011;9132;47.946;10.394;2022-10-16T02:22:50;1.90;;;1.00;;
18013;SDS011;9132;47.946;10.394;2022-10-16T02:25:19;6.17;;;0.90;;
18013;SDS011;9132;47.946;10.394;2022-10-16T02:27:49;3.50;;;1.00;;
18013;SDS011;9132;47.946;10.394;2022-10-16T02:30:19;3.13;;;1.10;;
18013;SDS011;9132;47.946;10.394;2022-10-16T02:32:47;2.00;;;0.97;;
18013;SDS011;9132;47.946;10.394;2022-10-16T02:35:14;4.10;;;1.20;;
18013;SDS011;9132;47.946;10.394;2022-10-16T02:37:43;4.37;;;1.10;;
18013;SDS011;9132;47.946;10.394;2022-10-16T02:40:10;1.83;;;1.10;;
18013;SDS011;9132;47.946;10.394;2022-10-16T02:42:38;0.80;;;0.70;;
18013;SDS011;9132;47.946;10.394;2022-10-16T02:45:04;0.70;;;0.70;;
18013;SDS011;9132;47.946;10.394;2022-10-16T02:47:31;3.27;;;1.10;;
18013;SDS011;9132;47.946;10.394;2022-10-16T02:49:57;4.77;;;1.37;;
18013;SDS011;9132;47.946;10.394;2022-10-16T02:52:24;4.67;;;1.43;;
18013;SDS011;9132;47.946;10.394;2022-10-16T02:54:51;2.47;;;1.20;;
18013;SDS011;9132;47.946;10.394;2022-10-16T02:57:18;1.83;;;1.00;;
18013;SDS011;9132;47.946;10.394;2022-10-16T02:59:44;2.30;;;1.00;;
18013;SDS011;9132;47.946;10.394;2022-10-16T03:02:10;6.50;;;1.30;;
18013;SDS011;9132;47.946;10.394;2022-10-16T03:04:37;1.87;;;1.00;;
18013;SDS011;9132;47.946;10.394;2022-10-16T03:07:03;3.37;;;0.90;;
18013;SDS011;9132;47.946;10.394;2022-10-16T03:09:30;0.87;;;0.87;;
18013;SDS011;9132;47.946;10.394;2022-10-16T03:11:57;5.03;;;1.00;;
18013;SDS011;9132;47.946;10.394;2022-10-16T03:14:24;2.07;;;0.93;;
18013;SDS011;9132;47.946;10.394;2022-10-16T03:16:50;5.30;;;1.17;;
18013;SDS011;9132;47.946;10.394;2022-10-16T03:19:17;2.90;;;1.10;;
18013;SDS011;9132;47.946;10.394;2022-10-16T03:21:43;3.07;;;1.10;;
18013;SDS011;9132;47.946;10.394;2022-10-16T03:24:10;2.07;;;0.93;;
18013;SDS011;9132;47.946;10.394;2022-10-16T03:26:36;6.37;;;1.40;;
18013;SDS011;9132;47.946;10.394;2022-10-16T03:29:04;4.23;;;1.17;;
18013;SDS011;9132;47.946;10.394;2022-10-16T03:31:30;2.73;;;0.90;;
18013;SDS011;9132;47.946;10.394;2022-10-16T03:33:56;1.70;;;0.80;;
18013;SDS011;9132;47.946;10.394;2022-10-16T03:36:23;3.57;;;1.00;;
18013;SDS011;9132;47.946;10.394;2022-10-16T03:38:49;1.27;;;0.80;;
18013;SDS011;9132;47.946;10.394;2022-10-16T03:41:15;0.80;;;0.80;;
18013;SDS011;9132;47.946;10.394;2022-10-16T03:43:42;1.43;;;0.90;;
18013;SDS011;9132;47.946;10.394;2022-10-16T03:46:09;1.93;;;0.90;;
18013;SDS011;9132;47.946;10.394;2022-10-16T03:48:36;2.30;;;1.10;;
18013;SDS011;9132;47.946;10.394;2022-10-16T03:51:02;0.97;;;0.90;;
18013;SDS011;9132;47.946;10.394;2022-10-16T03:53:29;1.93;;;1.00;;
18013;SDS011;9132;47.946;10.394;2022-10-16T03:55:55;1.57;;;1.00;;
18013;SDS011;9132;47.946;10.394;2022-10-16T03:58:21;2.07;;;0.90;;
18013;SDS011;9132;47.946;10.394;2022-10-16T04:00:48;2.17;;;0.90;;
18013;SDS011;9132;47.946;10.394;2022-10-16T04:03:15;1.60;;;0.90;;
18013;SDS011;9132;47.946;10.394;2022-10-16T04:05:43;4.50;;;1.30;;
18013;SDS011;9132;47.946;10.394;2022-10-16T04:08:10;3.50;;;1.20;;
18013;SDS011;9132;47.946;10.394;2022-10-16T04:10:36;4.60;;;1.23;;
18013;SDS011;9132;47.946;10.394;2022-10-16T04:13:02;1.80;;;0.90;;
18013;SDS011;9132;47.946;10.394;2022-10-16T04:15:29;1.20;;;0.87;;
18013;SDS011;9132;47.946;10.394;2022-10-16T04:17:55;1.00;;;0.80;;
18013;SDS011;9132;47.946;10.394;2022-10-16T04:20:23;5.00;;;1.10;;
18013;SDS011;9132;47.946;10.394;2022-10-16T04:22:49;1.80;;;1.00;;
18013;SDS011;9132;47.946;10.394;2022-10-16T04:25:15;4.90;;;1.20;;
18013;SDS011;9132;47.946;10.394;2022-10-16T04:27:42;2.30;;;0.83;;
18013;SDS011;9132;47.946;10.394;2022-10-16T04:30:08;1.30;;;1.00;;
18013;SDS011;9132;47.946;10.394;2022-10-16T04:32:35;4.37;;;1.00;;
18013;SDS011;9132;47.946;10.394;2022-10-16T04:35:01;1.93;;;0.80;;
18013;SDS011;9132;47.946;10.394;2022-10-16T04:37:29;0.90;;;0.70;;
18013;SDS011;9132;47.946;10.394;2022-10-16T04:39:55;1.63;;;0.63;;
18013;SDS011;9132;47.946;10.394;2022-10-16T04:42:22;1.10;;;0.80;;
18013;SDS011;9132;47.946;10.394;2022-10-16T04:44:48;1.27;;;0.80;;
18013;SDS011;9132;47.946;10.394;2022-10-16T04:47:14;0.60;;;0.60;;
18013;SDS011;9132;47.946;10.394;2022-10-16T04:49:41;2.00;;;0.70;;
18013;SDS011;9132;47.946;10.394;2022-10-16T04:52:07;1.57;;;0.70;;
18013;SDS011;9132;47.946;10.394;2022-10-16T04:54:35;3.20;;;0.80;;
18013;SDS011;9132;47.946;10.394;2022-10-16T04:57:02;0.67;;;0.67;;
18013;SDS011;9132;47.946;10.394;2022-10-16T04:59:29;2.43;;;1.03;;
18013;SDS011;9132;47.946;10.394;2022-10-16T05:01:56;1.70;;;0.60;;
18013;SDS011;9132;47.946;10.394;2022-10-16T05:04:22;3.40;;;0.90;;
18013;SDS011;9132;47.946;10.394;2022-10-16T05:06:49;0.90;;;0.73;;
18013;SDS011;9132;47.946;10.394;2022-10-16T05:09:15;2.30;;;0.80;;
18013;SDS011;9132;47.946;10.394;2022-10-16T05:11:43;1.60;;;0.67;;
18013;SDS011;9132;47.946;10.394;2022-10-16T05:14:09;1.20;;;0.73;;
18013;SDS011;9132;47.946;10.394;2022-10-16T05:16:35;2.27;;;0.77;;
18013;SDS011;9132;47.946;10.394;2022-10-16T05:19:02;1.00;;;0.60;;
18013;SDS011;9132;47.946;10.394;2022-10-16T05:21:28;3.23;;;0.90;;
18013;SDS011;9132;47.946;10.394;2022-10-16T05:23:54;1.03;;;0.80;;
18013;SDS011;9132;47.946;10.394;2022-10-16T05:26:21;1.50;;;0.90;;
18013;SDS011;9132;47.946;10.394;2022-10-16T05:28:49;4.43;;;0.87;;
18013;SDS011;9132;47.946;10.394;2022-10-16T05:31:15;3.00;;;0.93;;
18013;SDS011;9132;47.946;10.394;2022-10-16T05:33:42;3.27;;;0.90;;
18013;SDS011;9132;47.946;10.394;2022-10-16T05:36:09;5.83;;;0.80;;
18013;SDS011;9132;47.946;10.394;2022-10-16T05:38:35;0.90;;;0.70;;
18013;SDS011;9132;47.946;10.394;2022-10-16T05:41:02;3.47;;;0.80;;
18013;SDS011;9132;47.946;10.394;2022-10-16T05:43:29;1.73;;;1.03;;
18013;SDS011;9132;47.946;10.394;2022-10-16T05:45:57;3.47;;;0.93;;
18013;SDS011;9132;47.946;10.394;2022-10-16T05:48:24;1.50;;;1.10;;
18013;SDS011;9132;47.946;10.394;2022-10-16T05:50:56;9.83;;;1.33;;
18013;SDS011;9132;47.946;10.394;2022-10-16T05:53:22;0.97;;;0.70;;
18013;SDS011;9132;47.946;10.394;2022-10-16T05:55:51;2.17;;;0.70;;
18013;SDS011;9132;47.946;10.394;2022-10-16T05:58:17;1.70;;;0.73;;
18013;SDS011;9132;47.946;10.394;2022-10-16T06:00:44;1.67;;;0.93;;
18013;SDS011;9132;47.946;10.394;2022-10-16T06:03:11;2.33;;;0.80;;
18013;SDS011;9132;47.946;10.394;2022-10-16T06:05:38;1.13;;;0.80;;
18013;SDS011;9132;47.946;10.394;2022-10-16T06:08:04;2.00;;;1.03;;
18013;SDS011;9132;47.946;10.394;2022-10-16T06:10:31;3.03;;;0.87;;
18013;SDS011;9132;47.946;10.394;2022-10-16T06:12:57;1.20;;;0.83;;
18013;SDS011;9132;47.946;10.394;2022-10-16T06:15:23;0.80;;;0.80;;
18013;SDS011;9132;47.946;10.394;2022-10-16T06:17:50;1.83;;;0.80;;
18013;SDS011;9132;47.946;10.394;2022-10-16T06:20:17;2.97;;;0.90;;
18013;SDS011;9132;47.946;10.394;2022-10-16T06:22:44;2.20;;;0.70;;
18013;SDS011;9132;47.946;10.394;2022-10-16T06:25:10;1.30;;;0.80;;
18013;SDS011;9132;47.946;10.394;2022-10-16T06:27:38;2.43;;;1.07;;
18013;SDS011;9132;47.946;10.394;2022-10-16T06:30:05;2.73;;;1.07;;
18013;SDS011;9132;47.946;10.394;2022-10-16T06:32:32;4.07;;;0.70;;
18013;SDS011;9132;47.946;10.394;2022-10-16T06:34:58;1.03;;;0.73;;
18013;SDS011;9132;47.946;10.394;2022-10-16T06:37:26;2.90;;;0.80;;
18013;SDS011;9132;47.946;10.394;2022-10-16T06:39:52;2.70;;;0.63;;
18013;SDS011;9132;47.946;10.394;2022-10-16T06:42:19;2.50;;;0.70;;
18013;SDS011;9132;47.946;10.394;2022-10-16T06:44:45;3.13;;;0.90;;
18013;SDS011;9132;47.946;10.394;2022-10-16T06:47:11;4.13;;;0.73;;
18013;SDS011;9132;47.946;10.394;2022-10-16T06:49:38;1.67;;;0.83;;
18013;SDS011;9132;47.946;10.394;2022-10-16T06:52:04;2.60;;;0.97;;
18013;SDS011;9132;47.946;10.394;2022-10-16T06:54:32;0.93;;;0.90;;
18013;SDS011;9132;47.946;10.394;2022-10-16T06:56:58;2.53;;;1.00;;
18013;SDS011;9132;47.946;10.394;2022-10-16T06:59:26;1.27;;;0.80;;
18013;SDS011;9132;47.946;10.394;2022-10-16T07:01:52;1.30;;;0.80;;
18013;SDS011;9132;47.946;10.394;2022-10-16T07:04:18;0.80;;;0.80;;
18013;SDS011;9132;47.946;10.394;2022-10-16T07:06:45;5.57;;;0.90;;
18013;SDS011;9132;47.946;10.394;2022-10-16T07:09:11;0.90;;;0.70;;
18013;SDS011;9132;47.946;10.394;2022-10-16T07:11:39;1.03;;;0.60;;
18013;SDS011;9132;47.946;10.394;2022-10-16T07:14:09;3.67;;;1.20;;
18013;SDS011;9132;47.946;10.394;2022-10-16T07:16:38;1.07;;;0.97;;
18013;SDS011;9132;47.946;10.394;2022-10-16T07:19:04;1.07;;;0.83;;
18013;SDS011;9132;47.946;10.394;2022-10-16T07:21:31;0.67;;;0.67;;
18013;SDS011;9132;47.946;10.394;2022-10-16T07:24:00;0.93;;;0.90;;
18013;SDS011;9132;47.946;10.394;2022-10-16T07:26:27;1.10;;;0.83;;
18013;SDS011;9132;47.946;10.394;2022-10-16T07:28:56;2.40;;;0.90;;
18013;SDS011;9132;47.946;10.394;2022-10-16T07:31:22;1.27;;;0.70;;
18013;SDS011;9132;47.946;10.394;2022-10-16T07:33:49;1.20;;;0.50;;
18013;SDS011;9132;47.946;10.394;2022-10-16T07:36:16;3.73;;;0.77;;
18013;SDS011;9132;47.946;10.394;2022-10-16T07:38:43;1.70;;;0.60;;
18013;SDS011;9132;47.946;10.394;2022-10-16T07:41:10;2.73;;;1.10;;
18013;SDS011;9132;47.946;10.394;2022-10-16T07:43:37;2.87;;;0.73;;
18013;SDS011;9132;47.946;10.394;2022-10-16T07:46:04;0.90;;;0.90;;
18013;SDS011;9132;47.946;10.394;2022-10-16T07:48:32;0.73;;;0.70;;
18013;SDS011;9132;47.946;10.394;2022-10-16T07:50:58;1.58;;;0.80;;
18013;SDS011;9132;47.946;10.394;2022-10-16T07:53:25;2.57;;;0.80;;
18013;SDS011;9132;47.946;10.394;2022-10-16T07:55:51;3.80;;;0.90;;
18013;SDS011;9132;47.946;10.394;2022-10-16T07:58:18;1.50;;;0.90;;
18013;SDS011;9132;47.946;10.394;2022-10-16T08:00:44;3.00;;;0.60;;
18013;SDS011;9132;47.946;10.394;2022-10-16T08:03:12;4.07;;;1.10;;
18013;SDS011;9132;47.946;10.394;2022-10-16T08:05:38;0.60;;;0.60;;
18013;SDS011;9132;47.946;10.394;2022-10-16T08:08:04;1.80;;;0.70;;
18013;SDS011;9132;47.946;10.394;2022-10-16T08:10:31;3.40;;;0.80;;
18013;SDS011;9132;47.946;10.394;2022-10-16T08:12:57;2.50;;;0.70;;
18013;SDS011;9132;47.946;10.394;2022-10-16T08:15:24;0.60;;;0.60;;
18013;SDS011;9132;47.946;10.394;2022-10-16T08:17:54;0.73;;;0.73;;
18013;SDS011;9132;47.946;10.394;2022-10-16T08:20:22;1.45;;;0.77;;
18013;SDS011;9132;47.946;10.394;2022-10-16T08:22:48;3.10;;;0.80;;
18013;SDS011;9132;47.946;10.394;2022-10-16T08:25:15;2.47;;;0.70;;
18013;SDS011;9132;47.946;10.394;2022-10-16T08:27:41;1.00;;;0.80;;
18013;SDS011;9132;47.946;10.394;2022-10-16T08:30:08;0.70;;;0.60;;
18013;SDS011;9132;47.946;10.394;2022-10-16T08:32:35;1.38;;;0.70;;
18013;SDS011;9132;47.946;10.394;2022-10-16T08:35:01;4.88;;;0.88;;
18013;SDS011;9132;47.946;10.394;2022-10-16T08:37:30;1.73;;;0.95;;
18013;SDS011;9132;47.946;10.394;2022-10-16T08:39:57;3.80;;;1.25;;
18013;SDS011;9132;47.946;10.394;2022-10-16T08:42:28;3.83;;;1.30;;
18013;SDS011;9132;47.946;10.394;2022-10-16T08:45:02;2.00;;;1.30;;
18013;SDS011;9132;47.946;10.394;2022-10-16T08:47:35;2.13;;;0.80;;
18013;SDS011;9132;47.946;10.394;2022-10-16T08:50:02;1.20;;;0.80;;
18013;SDS011;9132;47.946;10.394;2022-10-16T08:52:35;0.98;;;0.60;;
18013;SDS011;9132;47.946;10.394;2022-10-16T08:55:05;3.80;;;0.90;;
18013;SDS011;9132;47.946;10.394;2022-10-16T08:57:32;0.70;;;0.70;;
18013;SDS011;9132;47.946;10.394;2022-10-16T08:59:59;0.75;;;0.60;;
18013;SDS011;9132;47.946;10.394;2022-10-16T09:02:27;0.93;;;0.88;;
18013;SDS011;9132;47.946;10.394;2022-10-16T09:04:58;1.17;;;0.90;;
18013;SDS011;9132;47.946;10.394;2022-10-16T09:07:30;1.80;;;0.80;;
18013;SDS011;9132;47.946;10.394;2022-10-16T09:10:05;0.73;;;0.60;;
18013;SDS011;9132;47.946;10.394;2022-10-16T09:12:36;1.42;;;0.60;;
18013;SDS011;9132;47.946;10.394;2022-10-16T09:15:07;1.02;;;0.80;;
18013;SDS011;9132;47.946;10.394;2022-10-16T09:17:38;0.70;;;0.60;;
18013;SDS011;9132;47.946;10.394;2022-10-16T09:20:13;0.50;;;0.50;;
18013;SDS011;9132;47.946;10.394;2022-10-16T09:22:44;1.27;;;0.90;;
18013;SDS011;9132;47.946;10.394;2022-10-16T09:25:13;4.30;;;0.68;;
18013;SDS011;9132;47.946;10.394;2022-10-16T09:27:40;1.05;;;0.60;;
18013;SDS011;9132;47.946;10.394;2022-10-16T09:30:10;1.25;;;0.77;;
18013;SDS011;9132;47.946;10.394;2022-10-16T09:32:37;1.52;;;0.57;;
18013;SDS011;9132;47.946;10.394;2022-10-16T09:35:04;0.80;;;0.80;;
18013;SDS011;9132;47.946;10.394;2022-10-16T09:37:37;0.98;;;0.68;;
18013;SDS011;9132;47.946;10.394;2022-10-16T09:40:03;0.90;;;0.60;;
18013;SDS011;9132;47.946;10.394;2022-10-16T09:42:32;1.80;;;0.70;;
18013;SDS011;9132;47.946;10.394;2022-10-16T09:44:59;1.23;;;0.70;;
18013;SDS011;9132;47.946;10.394;2022-10-16T09:47:25;0.57;;;0.57;;
18013;SDS011;9132;47.946;10.394;2022-10-16T09:49:52;1.70;;;0.70;;
18013;SDS011;9132;47.946;10.394;2022-10-16T09:52:21;2.40;;;0.80;;
18013;SDS011;9132;47.946;10.394;2022-10-16T09:54:51;0.60;;;0.60;;
18013;SDS011;9132;47.946;10.394;2022-10-16T09:57:18;3.50;;;0.75;;
18013;SDS011;9132;47.946;10.394;2022-10-16T09:59:47;0.90;;;0.70;;
18013;SDS011;9132;47.946;10.394;2022-10-16T10:02:14;1.05;;;0.73;;
18013;SDS011;9132;47.946;10.394;2022-10-16T10:04:42;1.58;;;0.60;;
18013;SDS011;9132;47.946;10.394;2022-10-16T10:07:16;0.77;;;0.60;;
18013;SDS011;9132;47.946;10.394;2022-10-16T10:09:43;1.75;;;0.70;;
18013;SDS011;9132;47.946;10.394;2022-10-16T10:12:16;3.05;;;0.75;;
18013;SDS011;9132;47.946;10.394;2022-10-16T10:14:44;1.23;;;0.60;;
18013;SDS011;9132;47.946;10.394;2022-10-16T10:17:15;2.42;;;0.70;;
18013;SDS011;9132;47.946;10.394;2022-10-16T10:19:44;1.98;;;0.77;;
18013;SDS011;9132;47.946;10.394;2022-10-16T10:22:17;0.93;;;0.60;;
18013;SDS011;9132;47.946;10.394;2022-10-16T10:24:44;1.50;;;0.60;;
18013;SDS011;9132;47.946;10.394;2022-10-16T10:27:10;2.00;;;0.70;;
18013;SDS011;9132;47.946;10.394;2022-10-16T10:29:43;3.28;;;0.80;;
18013;SDS011;9132;47.946;10.394;2022-10-16T10:32:17;0.70;;;0.70;;
18013;SDS011;9132;47.946;10.394;2022-10-16T10:34:49;0.90;;;0.80;;
18013;SDS011;9132;47.946;10.394;2022-10-16T10:37:23;1.13;;;0.60;;
18013;SDS011;9132;47.946;10.394;2022-10-16T10:39:55;0.70;;;0.60;;
18013;SDS011;9132;47.946;10.394;2022-10-16T10:42:24;1.17;;;0.70;;
18013;SDS011;9132;47.946;10.394;2022-10-16T10:47:42;0.98;;;0.75;;
18013;SDS011;9132;47.946;10.394;2022-10-16T10:50:12;1.17;;;0.98;;
18013;SDS011;9132;47.946;10.394;2022-10-16T10:52:43;2.63;;;0.80;;
18013;SDS011;9132;47.946;10.394;2022-10-16T10:55:16;0.80;;;0.73;;
18013;SDS011;9132;47.946;10.394;2022-10-16T10:57:50;1.75;;;0.70;;
18013;SDS011;9132;47.946;10.394;2022-10-16T11:00:20;2.35;;;0.80;;
18013;SDS011;9132;47.946;10.394;2022-10-16T11:02:50;0.98;;;0.70;;
18013;SDS011;9132;47.946;10.394;2022-10-16T11:05:23;1.67;;;0.57;;
18013;SDS011;9132;47.946;10.394;2022-10-16T11:07:52;1.05;;;0.70;;
18013;SDS011;9132;47.946;10.394;2022-10-16T11:10:21;6.05;;;0.80;;
18013;SDS011;9132;47.946;10.394;2022-10-16T11:12:49;0.82;;;0.73;;
18013;SDS011;9132;47.946;10.394;2022-10-16T11:15:18;1.27;;;0.70;;
18013;SDS011;9132;47.946;10.394;2022-10-16T11:17:47;0.77;;;0.70;;
18013;SDS011;9132;47.946;10.394;2022-10-16T11:20:16;2.25;;;0.77;;
18013;SDS011;9132;47.946;10.394;2022-10-16T11:22:44;2.03;;;0.70;;
18013;SDS011;9132;47.946;10.394;2022-10-16T11:25:13;0.63;;;0.63;;
18013;SDS011;9132;47.946;10.394;2022-10-16T11:27:42;1.73;;;0.60;;
18013;SDS011;9132;47.946;10.394;2022-10-16T11:30:12;1.33;;;0.70;;
18013;SDS011;9132;47.946;10.394;2022-10-16T11:32:42;2.22;;;1.00;;
18013;SDS011;9132;47.946;10.394;2022-10-16T11:35:13;1.77;;;0.70;;
18013;SDS011;9132;47.946;10.394;2022-10-16T11:37:43;2.83;;;1.25;;
18013;SDS011;9132;47.946;10.394;2022-10-16T11:40:15;0.73;;;0.60;;
18013;SDS011;9132;47.946;10.394;2022-10-16T11:42:44;0.70;;;0.70;;
18013;SDS011;9132;47.946;10.394;2022-10-16T11:45:15;0.82;;;0.70;;
18013;SDS011;9132;47.946;10.394;2022-10-16T11:47:45;0.73;;;0.52;;
18013;SDS011;9132;47.946;10.394;2022-10-16T11:50:15;1.98;;;0.68;;
18013;SDS011;9132;47.946;10.394;2022-10-16T11:52:47;0.98;;;0.77;;
18013;SDS011;9132;47.946;10.394;2022-10-16T11:55:18;1.13;;;0.65;;
18013;SDS011;9132;47.946;10.394;2022-10-16T11:57:46;1.38;;;0.70;;
18013;SDS011;9132;47.946;10.394;2022-10-16T12:00:18;0.57;;;0.57;;
18013;SDS011;9132;47.946;10.394;2022-10-16T12:02:49;1.52;;;0.70;;
18013;SDS011;9132;47.946;10.394;2022-10-16T12:05:22;3.08;;;0.88;;
18013;SDS011;9132;47.946;10.394;2022-10-16T12:07:54;0.50;;;0.47;;
18013;SDS011;9132;47.946;10.394;2022-10-16T12:10:24;1.70;;;0.65;;
18013;SDS011;9132;47.946;10.394;2022-10-16T12:12:50;0.85;;;0.60;;
18013;SDS011;9132;47.946;10.394;2022-10-16T12:15:22;2.17;;;0.63;;
18013;SDS011;9132;47.946;10.394;2022-10-16T12:17:49;0.73;;;0.70;;
18013;SDS011;9132;47.946;10.394;2022-10-16T12:20:24;0.90;;;0.70;;
18013;SDS011;9132;47.946;10.394;2022-10-16T12:22:53;0.90;;;0.57;;
18013;SDS011;9132;47.946;10.394;2022-10-16T12:25:21;1.10;;;0.88;;
18013;SDS011;9132;47.946;10.394;2022-10-16T12:27:53;0.82;;;0.50;;
18013;SDS011;9132;47.946;10.394;2022-10-16T12:30:22;0.60;;;0.60;;
18013;SDS011;9132;47.946;10.394;2022-10-16T12:32:53;0.70;;;0.70;;
18013;SDS011;9132;47.946;10.394;2022-10-16T12:35:20;2.25;;;0.57;;
18013;SDS011;9132;47.946;10.394;2022-10-16T12:37:47;0.70;;;0.70;;
18013;SDS011;9132;47.946;10.394;2022-10-16T12:40:22;0.95;;;0.50;;
18013;SDS011;9132;47.946;10.394;2022-10-16T12:42:49;1.05;;;0.75;;
18013;SDS011;9132;47.946;10.394;2022-10-16T12:45:26;0.60;;;0.60;;
18013;SDS011;9132;47.946;10.394;2022-10-16T12:47:53;1.85;;;0.60;;
18013;SDS011;9132;47.946;10.394;2022-10-16T12:50:24;1.52;;;0.60;;
18013;SDS011;9132;47.946;10.394;2022-10-16T12:52:51;1.23;;;0.70;;
18013;SDS011;9132;47.946;10.394;2022-10-16T12:55:19;0.60;;;0.60;;
18013;SDS011;9132;47.946;10.394;2022-10-16T12:57:52;0.60;;;0.50;;
18013;SDS011;9132;47.946;10.394;2022-10-16T13:00:24;0.50;;;0.50;;
18013;SDS011;9132;47.946;10.394;2022-10-16T13:03:11;0.82;;;0.55;;
18013;SDS011;9132;47.946;10.394;2022-10-16T13:05:48;1.23;;;0.63;;
18013;SDS011;9132;47.946;10.394;2022-10-16T13:08:22;2.33;;;0.70;;
18013;SDS011;9132;47.946;10.394;2022-10-16T13:10:57;1.38;;;0.75;;
18013;SDS011;9132;47.946;10.394;2022-10-16T13:13:39;1.60;;;0.60;;
18013;SDS011;9132;47.946;10.394;2022-10-16T13:16:13;0.60;;;0.60;;
18013;SDS011;9132;47.946;10.394;2022-10-16T13:18:45;0.70;;;0.70;;
18013;SDS011;9132;47.946;10.394;2022-10-16T13:21:22;1.40;;;0.77;;
18013;SDS011;9132;47.946;10.394;2022-10-16T13:23:52;1.33;;;0.70;;
18013;SDS011;9132;47.946;10.394;2022-10-16T13:26:24;1.95;;;0.80;;
18013;SDS011;9132;47.946;10.394;2022-10-16T13:28:53;1.30;;;0.70;;
18013;SDS011;9132;47.946;10.394;2022-10-16T13:31:21;2.50;;;0.55;;
18013;SDS011;9132;47.946;10.394;2022-10-16T13:33:49;0.80;;;0.80;;
18013;SDS011;9132;47.946;10.394;2022-10-16T13:36:20;0.80;;;0.80;;
18013;SDS011;9132;47.946;10.394;2022-10-16T13:38:47;2.53;;;0.70;;
18013;SDS011;9132;47.946;10.394;2022-10-16T13:41:15;0.60;;;0.60;;
18013;SDS011;9132;47.946;10.394;2022-10-16T13:43:43;0.70;;;0.63;;
18013;SDS011;9132;47.946;10.394;2022-10-16T13:46:12;0.50;;;0.50;;
18013;SDS011;9132;47.946;10.394;2022-10-16T13:48:38;4.00;;;0.82;;
18013;SDS011;9132;47.946;10.394;2022-10-16T13:51:06;1.77;;;0.88;;
18013;SDS011;9132;47.946;10.394;2022-10-16T13:53:33;3.05;;;0.68;;
18013;SDS011;9132;47.946;10.394;2022-10-16T13:56:01;1.08;;;0.60;;
18013;SDS011;9132;47.946;10.394;2022-10-16T13:58:27;1.95;;;0.60;;
18013;SDS011;9132;47.946;10.394;2022-10-16T14:00:56;1.55;;;0.60;;
18013;SDS011;9132;47.946;10.394;2022-10-16T14:03:24;1.23;;;0.77;;
18013;SDS011;9132;47.946;10.394;2022-10-16T14:05:51;1.10;;;0.60;;
18013;SDS011;9132;47.946;10.394;2022-10-16T14:08:18;2.67;;;0.90;;
18013;SDS011;9132;47.946;10.394;2022-10-16T14:10:47;1.13;;;0.65;;
18013;SDS011;9132;47.946;10.394;2022-10-16T14:13:14;1.77;;;0.70;;
18013;SDS011;9132;47.946;10.394;2022-10-16T14:15:45;0.95;;;0.55;;
18013;SDS011;9132;47.946;10.394;2022-10-16T14:18:14;1.67;;;0.75;;
18013;SDS011;9132;47.946;10.394;2022-10-16T14:20:43;1.13;;;0.70;;
18013;SDS011;9132;47.946;10.394;2022-10-16T14:23:19;2.05;;;0.77;;
18013;SDS011;9132;47.946;10.394;2022-10-16T14:25:45;1.70;;;0.70;;
18013;SDS011;9132;47.946;10.394;2022-10-16T14:28:14;1.88;;;0.70;;
18013;SDS011;9132;47.946;10.394;2022-10-16T14:30:48;1.17;;;0.77;;
18013;SDS011;9132;47.946;10.394;2022-10-16T14:33:20;0.90;;;0.90;;
18013;SDS011;9132;47.946;10.394;2022-10-16T14:35:56;1.67;;;0.70;;
18013;SDS011;9132;47.946;10.394;2022-10-16T14:38:24;6.95;;;2.22;;
18013;SDS011;9132;47.946;10.394;2022-10-16T14:40:50;3.30;;;1.58;;
18013;SDS011;9132;47.946;10.394;2022-10-16T14:43:20;3.80;;;1.10;;
18013;SDS011;9132;47.946;10.394;2022-10-16T14:45:49;2.90;;;1.00;;
18013;SDS011;9132;47.946;10.394;2022-10-16T14:48:17;1.88;;;1.10;;
18013;SDS011;9132;47.946;10.394;2022-10-16T14:50:46;3.17;;;0.88;;
18013;SDS011;9132;47.946;10.394;2022-10-16T14:53:12;5.40;;;1.10;;
18013;SDS011;9132;47.946;10.394;2022-10-16T14:55:39;2.83;;;0.90;;
18013;SDS011;9132;47.946;10.394;2022-10-16T14:58:05;2.28;;;1.05;;
18013;SDS011;9132;47.946;10.394;2022-10-16T15:00:32;5.30;;;2.33;;